createdAt,value
2023-03-07T00:00:50.434Z,36.35
2023-03-07T00:03:17.817Z,37.80
2023-03-07T00:05:44.720Z,33.65
2023-03-07T00:08:12.225Z,34.90
2023-03-07T00:10:38.953Z,32.95
2023-03-07T00:13:05.508Z,33.50
2023-03-07T00:15:32.100Z,36.42
2023-03-07T00:17:58.761Z,37.00
2023-03-07T00:20:25.366Z,34.67
2023-03-07T00:22:51.921Z,34.28
2023-03-07T00:25:18.615Z,36.42
2023-03-07T00:27:45.172Z,34.35
2023-03-07T00:32:46.997Z,34.88
2023-03-07T00:35:16.116Z,35.15
2023-03-07T00:37:42.805Z,34.03
2023-03-07T00:40:10.282Z,34.60
2023-03-07T00:42:36.847Z,33.40
2023-03-07T00:46:03.319Z,33.90
2023-03-07T00:48:52.336Z,36.40
2023-03-07T00:51:21.091Z,33.17
2023-03-07T00:53:48.606Z,35.92
2023-03-07T00:56:16.727Z,35.95
2023-03-07T00:58:43.843Z,40.33
2023-03-07T01:01:12.291Z,36.97
2023-03-07T01:06:16.379Z,38.78
2023-03-07T01:08:43.384Z,34.97
2023-03-07T01:11:10.830Z,35.35
2023-03-07T01:13:37.839Z,39.70
2023-03-07T01:16:25.354Z,43.25
2023-03-07T01:19:25.820Z,38.58
2023-03-07T01:22:42.316Z,42.22
2023-03-07T01:25:21.735Z,36.72
2023-03-07T01:28:21.599Z,42.92
2023-03-07T01:34:05.532Z,45.00
2023-03-07T01:36:55.499Z,42.38
2023-03-07T01:39:23.148Z,40.75
2023-03-07T01:41:49.743Z,41.35
2023-03-07T01:44:17.807Z,41.95
2023-03-07T01:46:55.239Z,42.88
2023-03-07T01:50:27.762Z,40.88
2023-03-07T01:53:01.913Z,39.10
2023-03-07T01:55:32.027Z,35.85
2023-03-07T01:58:04.406Z,38.78
2023-03-07T02:00:30.983Z,41.37
2023-03-07T02:03:10.783Z,37.25
2023-03-07T02:05:41.184Z,39.95
2023-03-07T02:10:49.956Z,38.97
2023-03-07T02:13:16.917Z,41.67
2023-03-07T02:15:43.644Z,41.20
2023-03-07T02:18:15.736Z,38.15
2023-03-07T02:20:42.208Z,36.20
2023-03-07T02:27:07.914Z,39.25
2023-03-07T02:29:34.580Z,37.85
2023-03-07T02:32:01.132Z,40.35
2023-03-07T02:34:30.845Z,36.20
2023-03-07T02:37:22.452Z,41.78
2023-03-07T02:39:49.097Z,39.90
2023-03-07T02:42:25.546Z,37.55
2023-03-07T02:45:01.027Z,38.53
2023-03-07T02:47:27.850Z,37.05
2023-03-07T02:49:55.120Z,36.97
2023-03-07T02:52:28.613Z,35.75
2023-03-07T02:54:55.806Z,39.72
2023-03-07T02:57:25.041Z,39.92
2023-03-07T02:59:51.667Z,38.20
2023-03-07T03:02:23.531Z,39.10
2023-03-07T03:05:09.856Z,36.65
2023-03-07T03:07:48.920Z,40.30
2023-03-07T03:10:16.303Z,40.30
2023-03-07T03:15:24.808Z,37.00
2023-03-07T03:17:54.930Z,36.28
2023-03-07T03:20:21.618Z,35.28
2023-03-07T03:22:48.223Z,35.45
2023-03-07T03:25:15.225Z,36.22
2023-03-07T03:27:42.051Z,40.28
2023-03-07T03:30:12.429Z,36.17
2023-03-07T03:32:40.231Z,36.15
2023-03-07T03:35:07.726Z,36.55
2023-03-07T03:38:18.602Z,37.13
2023-03-07T03:41:19.530Z,35.10
2023-03-07T03:43:46.301Z,35.95
2023-03-07T03:46:13.094Z,32.50
2023-03-07T03:48:40.661Z,36.50
2023-03-07T03:51:16.224Z,36.63
2023-03-07T03:53:42.803Z,34.63
2023-03-07T03:56:21.307Z,38.80
2023-03-07T03:58:53.326Z,33.85
2023-03-07T04:01:22.495Z,38.10
2023-03-07T04:03:51.292Z,37.97
2023-03-07T04:06:21.272Z,39.25
2023-03-07T04:09:00.544Z,35.85
2023-03-07T04:11:42.524Z,36.05
2023-03-07T04:14:09.137Z,38.22
2023-03-07T04:16:35.789Z,37.28
2023-03-07T04:19:02.784Z,36.95
2023-03-07T04:21:29.335Z,38.55
2023-03-07T04:23:58.311Z,33.90
2023-03-07T04:29:06.817Z,39.67
2023-03-07T04:31:33.452Z,36.90
2023-03-07T04:34:00.078Z,34.10
2023-03-07T04:36:26.839Z,38.97
2023-03-07T04:38:53.455Z,37.40
2023-03-07T04:45:27.603Z,35.00
2023-03-07T04:47:54.159Z,36.38
2023-03-07T04:50:20.973Z,34.53
2023-03-07T04:52:47.577Z,34.47
2023-03-07T04:55:15.012Z,36.25
2023-03-07T04:57:42.005Z,36.88
2023-03-07T05:00:10.215Z,37.33
2023-03-07T05:02:37.858Z,36.17
2023-03-07T05:05:05.645Z,35.90
2023-03-07T05:07:32.848Z,35.40
2023-03-07T05:09:59.629Z,34.83
2023-03-07T05:12:26.162Z,33.95
2023-03-07T05:14:55.256Z,33.70
2023-03-07T05:17:41.941Z,36.90
2023-03-07T05:20:14.145Z,34.78
2023-03-07T05:22:40.773Z,35.15
2023-03-07T05:25:10.639Z,31.37
2023-03-07T05:27:37.299Z,31.35
2023-03-07T05:30:05.842Z,41.78
2023-03-07T05:32:35.097Z,33.65
2023-03-07T05:35:12.427Z,36.15
2023-03-07T05:37:38.974Z,34.10
2023-03-07T05:40:15.371Z,36.95
2023-03-07T05:42:41.924Z,35.08
2023-03-07T05:45:17.589Z,38.80
2023-03-07T05:48:09.714Z,35.08
2023-03-07T05:50:46.703Z,35.42
2023-03-07T05:53:13.329Z,37.85
2023-03-07T05:55:39.877Z,41.10
2023-03-07T05:58:06.637Z,34.80
2023-03-07T06:00:33.250Z,34.45
2023-03-07T06:03:04.794Z,40.55
2023-03-07T06:05:31.484Z,38.83
2023-03-07T06:08:00.131Z,37.13
2023-03-07T06:10:27.113Z,37.95
2023-03-07T06:12:54.811Z,36.42
2023-03-07T06:15:24.613Z,37.80
2023-03-07T06:17:52.710Z,40.78
2023-03-07T06:20:20.968Z,36.63
2023-03-07T06:22:48.872Z,34.47
2023-03-07T06:25:16.888Z,35.50
2023-03-07T06:27:43.526Z,37.03
2023-03-07T06:30:12.343Z,38.00
2023-03-07T06:32:38.961Z,38.65
2023-03-07T06:35:06.024Z,37.67
2023-03-07T06:37:32.619Z,34.53
2023-03-07T06:39:59.190Z,36.20
2023-03-07T06:42:25.777Z,35.67
2023-03-07T06:44:52.314Z,33.03
2023-03-07T06:47:18.853Z,35.35
2023-03-07T06:54:56.049Z,31.55
2023-03-07T06:57:22.665Z,29.17
2023-03-07T06:59:49.205Z,26.52
2023-03-07T07:02:15.905Z,29.02
2023-03-07T07:04:42.523Z,31.52
2023-03-07T07:07:31.126Z,36.42
2023-03-07T07:10:19.404Z,34.90
2023-03-07T07:12:47.424Z,35.78
2023-03-07T07:15:13.986Z,34.63
2023-03-07T07:17:40.584Z,33.83
2023-03-07T07:20:11.278Z,36.13
2023-03-07T07:22:37.843Z,40.83
2023-03-07T07:25:04.926Z,34.35
2023-03-07T07:27:31.620Z,38.05
2023-03-07T07:29:58.235Z,35.88
2023-03-07T07:32:24.959Z,34.38
2023-03-07T07:34:51.681Z,32.55
2023-03-07T07:37:18.349Z,31.87
2023-03-07T07:39:45.299Z,35.17
2023-03-07T07:42:12.534Z,34.92
2023-03-07T07:44:39.107Z,36.95
2023-03-07T07:47:05.832Z,35.72
2023-03-07T07:49:32.468Z,34.08
2023-03-07T07:51:59.146Z,33.92
2023-03-07T07:57:22.642Z,37.17
2023-03-07T07:59:49.837Z,34.83
2023-03-07T08:02:16.441Z,34.78
2023-03-07T08:04:43.182Z,32.35
2023-03-07T08:07:09.810Z,42.33
2023-03-07T08:12:29.991Z,33.20
2023-03-07T08:15:24.579Z,30.17
2023-03-07T08:17:51.421Z,30.77
2023-03-07T08:20:22.268Z,36.75
2023-03-07T08:22:50.604Z,33.55
2023-03-07T08:25:33.714Z,33.60
2023-03-07T08:28:03.217Z,29.35
2023-03-07T08:30:32.114Z,31.85
2023-03-07T08:32:59.238Z,29.25
2023-03-07T08:35:27.312Z,29.60
2023-03-07T08:37:55.794Z,27.58
2023-03-07T08:40:24.860Z,27.48
2023-03-07T08:42:51.918Z,29.42
2023-03-07T08:45:18.586Z,25.67
2023-03-07T08:47:45.432Z,27.75
2023-03-07T08:50:12.359Z,27.20
2023-03-07T08:52:38.929Z,24.08
2023-03-07T08:55:06.033Z,27.70
2023-03-07T08:57:33.426Z,23.83
2023-03-07T09:00:08.850Z,28.45
2023-03-07T09:02:50.581Z,26.23
2023-03-07T09:05:39.143Z,24.77
2023-03-07T09:08:07.233Z,26.50
2023-03-07T09:10:35.345Z,22.30
2023-03-07T09:13:01.979Z,24.70
2023-03-07T09:15:28.587Z,31.70
2023-03-07T09:17:55.222Z,23.73
2023-03-07T09:20:22.194Z,20.08
2023-03-07T09:22:48.855Z,21.40
2023-03-07T09:25:15.469Z,25.67
2023-03-07T09:27:45.453Z,22.90
2023-03-07T09:30:13.680Z,17.67
2023-03-07T09:32:40.563Z,16.98
2023-03-07T09:35:25.940Z,18.05
2023-03-07T09:38:16.644Z,15.30
2023-03-07T09:41:09.735Z,18.55
2023-03-07T09:43:59.529Z,16.75
2023-03-07T09:47:11.661Z,18.83
2023-03-07T09:49:47.196Z,18.48
2023-03-07T09:52:17.888Z,17.33
2023-03-07T09:55:01.627Z,17.05
2023-03-07T09:57:31.662Z,18.83
2023-03-07T10:00:28.122Z,16.02
2023-03-07T10:03:04.092Z,19.98
2023-03-07T10:05:51.052Z,17.10
2023-03-07T10:09:05.498Z,18.67
2023-03-07T10:11:50.152Z,18.20
2023-03-07T10:14:25.222Z,16.98
2023-03-07T10:16:52.005Z,19.45
2023-03-07T10:19:58.921Z,17.50
2023-03-07T10:25:31.631Z,11.57
2023-03-07T10:28:11.885Z,9.93
2023-03-07T10:30:38.624Z,9.13
2023-03-07T10:33:16.187Z,10.00
2023-03-07T10:35:45.470Z,10.90
2023-03-07T10:38:18.144Z,12.05
2023-03-07T10:40:56.807Z,12.05
2023-03-07T10:43:27.361Z,11.98
2023-03-07T10:46:23.721Z,13.50
2023-03-07T10:49:04.092Z,15.50
2023-03-07T10:51:50.660Z,17.05
2023-03-07T10:54:20.906Z,17.65
2023-03-07T10:57:07.498Z,17.15
2023-03-07T10:59:35.233Z,15.07
2023-03-07T11:02:05.913Z,16.77
2023-03-07T11:04:45.706Z,16.87
2023-03-07T11:07:32.811Z,17.70
2023-03-07T11:10:01.865Z,21.60
2023-03-07T11:12:31.924Z,21.10
2023-03-07T11:15:12.204Z,19.02
2023-03-07T11:17:45.110Z,19.05
2023-03-07T11:20:25.654Z,20.83
2023-03-07T11:23:30.855Z,17.95
2023-03-07T11:26:18.738Z,21.30
2023-03-07T11:28:45.320Z,17.15
2023-03-07T11:31:26.353Z,24.00
2023-03-07T11:34:17.638Z,18.92
2023-03-07T11:36:48.738Z,20.33
2023-03-07T11:39:18.035Z,16.65
2023-03-07T11:41:54.886Z,18.30
2023-03-07T11:44:44.296Z,18.10
2023-03-07T11:48:03.097Z,17.12
2023-03-07T11:50:32.411Z,17.30
2023-03-07T11:53:01.784Z,18.58
2023-03-07T11:55:47.128Z,16.45
2023-03-07T11:58:52.789Z,17.73
2023-03-07T12:01:40.814Z,18.20
2023-03-07T12:04:34.806Z,16.27
2023-03-07T12:07:19.479Z,15.23
2023-03-07T12:10:20.137Z,16.35
2023-03-07T12:12:56.686Z,15.45
2023-03-07T12:16:11.678Z,19.30
2023-03-07T12:19:04.468Z,13.13
2023-03-07T12:24:57.557Z,14.63
2023-03-07T12:27:32.569Z,13.23
2023-03-07T12:30:04.870Z,14.02
2023-03-07T12:32:35.772Z,13.48
2023-03-07T12:35:25.673Z,14.43
2023-03-07T12:37:52.166Z,14.30
2023-03-07T12:40:23.432Z,15.38
2023-03-07T12:43:10.540Z,12.48
2023-03-07T12:45:51.201Z,12.82
2023-03-07T12:48:56.949Z,12.32
2023-03-07T12:51:36.945Z,13.60
2023-03-07T12:54:06.237Z,12.85
2023-03-07T12:56:43.929Z,14.68
2023-03-07T12:59:16.017Z,14.75
2023-03-07T13:02:08.908Z,13.73
2023-03-07T13:04:38.398Z,15.27
2023-03-07T13:07:37.299Z,14.95
2023-03-07T13:10:06.903Z,14.50
2023-03-07T13:12:35.772Z,14.20
2023-03-07T13:15:17.477Z,14.95
2023-03-07T13:17:43.968Z,18.98
2023-03-07T13:20:19.307Z,15.60
2023-03-07T13:22:45.876Z,14.70
2023-03-07T13:25:56.345Z,13.93
2023-03-07T13:29:00.233Z,15.32
2023-03-07T13:31:37.240Z,16.30
2023-03-07T13:34:54.798Z,16.40
2023-03-07T13:37:50.148Z,15.82
2023-03-07T13:40:48.948Z,17.73
2023-03-07T13:43:27.470Z,16.75
2023-03-07T13:45:58.986Z,16.58
2023-03-07T13:48:31.347Z,16.50
2023-03-07T13:51:06.666Z,15.02
2023-03-07T13:53:48.489Z,14.48
2023-03-07T13:56:19.992Z,14.63
2023-03-07T13:58:48.749Z,19.85
2023-03-07T14:02:03.914Z,15.82
2023-03-07T14:04:41.054Z,15.45
2023-03-07T14:07:28.088Z,15.52
2023-03-07T14:10:09.901Z,15.60
2023-03-07T14:13:11.919Z,17.90
2023-03-07T14:15:45.024Z,16.90
2023-03-07T14:18:29.584Z,19.17
2023-03-07T14:21:17.856Z,15.98
2023-03-07T14:24:05.900Z,17.37
2023-03-07T14:26:37.660Z,17.98
2023-03-07T14:29:23.854Z,15.38
2023-03-07T14:31:57.190Z,18.02
2023-03-07T14:34:30.888Z,17.08
2023-03-07T14:37:05.476Z,16.73
2023-03-07T14:39:48.414Z,17.50
2023-03-07T14:42:20.875Z,17.77
2023-03-07T14:44:58.702Z,18.87
2023-03-07T14:47:30.150Z,18.62
2023-03-07T14:50:15.874Z,19.15
2023-03-07T14:52:43.386Z,19.30
2023-03-07T14:55:19.919Z,20.42
2023-03-07T14:57:52.606Z,17.98
2023-03-07T15:00:25.356Z,21.02
2023-03-07T15:02:55.588Z,22.30
2023-03-07T15:05:28.138Z,24.90
2023-03-07T15:07:55.086Z,20.98
2023-03-07T15:10:40.718Z,19.90
2023-03-07T15:13:42.351Z,18.40
2023-03-07T15:16:16.021Z,16.05
2023-03-07T15:18:49.801Z,16.92
2023-03-07T15:21:20.030Z,19.48
2023-03-07T15:23:56.313Z,16.40
2023-03-07T15:26:26.343Z,16.45
2023-03-07T15:29:09.034Z,16.40
2023-03-07T15:31:53.582Z,18.00
2023-03-07T15:34:40.434Z,15.77
2023-03-07T15:37:26.948Z,16.90
2023-03-07T15:40:01.381Z,16.37
2023-03-07T15:42:29.019Z,18.35
2023-03-07T15:45:00.975Z,15.98
2023-03-07T15:47:29.999Z,17.15
2023-03-07T15:49:58.820Z,15.95
2023-03-07T15:52:37.634Z,15.77
2023-03-07T15:55:16.200Z,14.80
2023-03-07T15:57:52.600Z,16.92
2023-03-07T16:00:26.751Z,17.65
2023-03-07T16:02:53.421Z,17.37
2023-03-07T16:05:20.791Z,17.67
2023-03-07T16:07:49.205Z,16.60
2023-03-07T16:10:16.085Z,18.23
2023-03-07T16:12:46.602Z,75.35
2023-03-07T16:15:17.760Z,28.80
2023-03-07T16:17:45.012Z,28.67
2023-03-07T16:20:17.163Z,22.77
2023-03-07T16:22:44.482Z,19.20
2023-03-07T16:25:15.650Z,19.67
2023-03-07T16:27:51.645Z,17.40
2023-03-07T16:30:25.050Z,18.77
2023-03-07T16:32:52.341Z,17.58
2023-03-07T16:35:24.485Z,16.08
2023-03-07T16:37:51.546Z,18.40
2023-03-07T16:40:18.327Z,14.90
2023-03-07T16:42:46.848Z,17.73
2023-03-07T16:45:23.789Z,16.70
2023-03-07T16:47:58.653Z,15.18
2023-03-07T16:50:33.379Z,16.83
2023-03-07T16:53:00.428Z,15.43
2023-03-07T16:55:27.117Z,14.48
2023-03-07T16:58:03.100Z,15.68
2023-03-07T17:00:29.914Z,17.62
2023-03-07T17:02:59.923Z,17.25
2023-03-07T17:05:28.696Z,18.77
2023-03-07T17:07:57.293Z,17.27
2023-03-07T17:10:26.511Z,18.00
2023-03-07T17:12:55.085Z,16.98
2023-03-07T17:15:30.295Z,20.35
2023-03-07T17:17:58.025Z,21.00
2023-03-07T17:20:24.856Z,23.00
2023-03-07T17:22:52.319Z,18.60
2023-03-07T17:25:21.519Z,22.00
2023-03-07T17:28:08.453Z,24.37
2023-03-07T17:30:35.113Z,18.80
2023-03-07T17:33:01.809Z,18.87
2023-03-07T17:35:28.642Z,27.02
2023-03-07T17:37:55.716Z,15.73
2023-03-07T17:40:22.745Z,19.20
2023-03-07T17:42:51.130Z,20.62
2023-03-07T17:45:18.448Z,18.83
2023-03-07T17:47:45.035Z,23.05
2023-03-07T17:50:12.263Z,26.08
2023-03-07T17:52:38.845Z,24.70
2023-03-07T17:55:09.571Z,25.02
2023-03-07T17:57:36.771Z,27.90
2023-03-07T18:00:08.735Z,26.33
2023-03-07T18:02:35.363Z,29.25
2023-03-07T18:05:01.996Z,27.27
2023-03-07T18:07:28.609Z,27.50
2023-03-07T18:10:07.154Z,24.02
2023-03-07T18:12:39.238Z,28.35
2023-03-07T18:15:08.343Z,23.95
2023-03-07T18:17:46.948Z,21.77
2023-03-07T18:20:15.227Z,24.23
2023-03-07T18:22:42.864Z,26.33
2023-03-07T18:25:12.869Z,29.90
2023-03-07T18:27:39.504Z,24.83
2023-03-07T18:30:06.632Z,23.98
2023-03-07T18:32:34.283Z,23.08
2023-03-07T18:35:01.103Z,28.55
2023-03-07T18:37:39.546Z,26.00
2023-03-07T18:40:06.996Z,28.25
2023-03-07T18:42:34.302Z,28.87
2023-03-07T18:45:00.879Z,29.30
2023-03-07T18:47:27.468Z,33.67
2023-03-07T18:49:54.079Z,29.58
2023-03-07T18:52:20.700Z,30.75
2023-03-07T18:54:48.534Z,31.65
2023-03-07T18:57:15.275Z,32.33
2023-03-07T18:59:41.857Z,31.80
2023-03-07T19:02:10.147Z,24.77
2023-03-07T19:04:36.796Z,25.62
2023-03-07T19:07:04.102Z,24.08
2023-03-07T19:09:31.652Z,24.60
2023-03-07T19:11:58.288Z,25.58
2023-03-07T19:14:26.382Z,23.92
2023-03-07T19:16:53.168Z,23.55
2023-03-07T19:19:19.787Z,23.20
2023-03-07T19:21:46.345Z,25.15
2023-03-07T19:24:13.067Z,25.15
2023-03-07T19:26:40.944Z,22.05
2023-03-07T19:29:09.710Z,23.65
2023-03-07T19:31:36.442Z,24.25
2023-03-07T19:34:05.102Z,23.08
2023-03-07T19:36:35.235Z,23.23
2023-03-07T19:39:02.255Z,21.42
2023-03-07T19:41:31.437Z,22.58
2023-03-07T19:43:59.713Z,22.08
2023-03-07T19:46:26.922Z,24.37
2023-03-07T19:48:54.023Z,25.83
2023-03-07T19:51:23.362Z,20.73
2023-03-07T19:53:51.231Z,21.27
2023-03-07T19:56:22.260Z,21.92
2023-03-07T19:58:49.178Z,19.73
2023-03-07T20:01:21.544Z,19.62
2023-03-07T20:03:49.013Z,24.45
2023-03-07T20:06:20.005Z,18.42
2023-03-07T20:08:51.463Z,22.20
2023-03-07T20:11:20.554Z,19.77
2023-03-07T20:13:50.663Z,19.90
2023-03-07T20:16:20.377Z,22.52
2023-03-07T20:18:51.646Z,18.52
2023-03-07T20:21:19.941Z,23.60
2023-03-07T20:23:48.395Z,20.85
2023-03-07T20:26:24.791Z,18.52
2023-03-07T20:28:52.762Z,18.48
2023-03-07T20:31:20.334Z,18.95
2023-03-07T20:33:47.117Z,20.98
2023-03-07T20:36:19.503Z,19.85
2023-03-07T20:38:51.057Z,17.65
2023-03-07T20:41:20.982Z,18.80
2023-03-07T20:43:48.342Z,16.42
2023-03-07T20:46:16.892Z,18.00
2023-03-07T20:48:44.186Z,17.45
2023-03-07T20:51:23.347Z,17.40
2023-03-07T20:54:06.613Z,16.37
2023-03-07T20:59:16.793Z,15.90
2023-03-07T21:01:56.973Z,17.17
2023-03-07T21:04:27.128Z,15.95
2023-03-07T21:06:53.782Z,17.85
2023-03-07T21:09:20.544Z,16.83
2023-03-07T21:12:00.757Z,16.45
2023-03-07T21:14:27.613Z,18.70
2023-03-07T21:16:54.171Z,15.75
2023-03-07T21:19:23.415Z,18.35
2023-03-07T21:21:49.976Z,17.62
2023-03-07T21:24:16.614Z,15.35
2023-03-07T21:26:43.375Z,20.50
2023-03-07T21:29:10.885Z,17.92
2023-03-07T21:31:38.805Z,20.12
2023-03-07T21:36:56.348Z,17.50
2023-03-07T21:39:24.203Z,18.48
2023-03-07T21:41:51.263Z,19.40
2023-03-07T21:44:18.004Z,18.77
2023-03-07T21:46:45.264Z,17.50
2023-03-07T21:49:36.629Z,20.67
2023-03-07T21:52:21.522Z,17.67
2023-03-07T21:54:48.114Z,19.23
2023-03-07T21:57:14.694Z,20.77
2023-03-07T21:59:41.508Z,19.08
2023-03-07T22:02:10.562Z,19.35
2023-03-07T22:04:37.248Z,19.45
2023-03-07T22:10:07.325Z,21.58
2023-03-07T22:15:29.326Z,22.80
2023-03-07T22:20:31.841Z,21.08
2023-03-07T22:24:18.111Z,22.73
2023-03-07T22:27:05.977Z,23.42
2023-03-07T22:29:33.067Z,22.27
2023-03-07T22:32:01.566Z,27.48
2023-03-07T22:34:29.380Z,22.83
2023-03-07T22:36:57.470Z,23.92
2023-03-07T22:39:39.435Z,21.37
2023-03-07T22:42:06.197Z,22.75
2023-03-07T22:44:32.796Z,27.35
2023-03-07T22:46:59.735Z,28.38
2023-03-07T22:49:30.387Z,24.25
2023-03-07T22:51:57.196Z,25.15
2023-03-07T22:54:23.911Z,22.55
2023-03-07T22:56:50.445Z,24.50
2023-03-07T22:59:17.023Z,27.85
2023-03-07T23:01:43.651Z,29.37
2023-03-07T23:04:25.754Z,24.00
2023-03-07T23:07:27.346Z,24.42
2023-03-07T23:09:53.919Z,28.67
2023-03-07T23:12:38.723Z,30.55
2023-03-07T23:15:05.722Z,25.23
2023-03-07T23:17:32.353Z,24.90
2023-03-07T23:19:58.963Z,28.25
2023-03-07T23:22:43.795Z,26.52
2023-03-07T23:25:11.279Z,24.85
2023-03-07T23:27:37.952Z,25.77
2023-03-07T23:30:06.351Z,25.95
2023-03-07T23:32:45.876Z,27.73
2023-03-07T23:38:12.112Z,33.55
2023-03-07T23:40:39.188Z,34.17
2023-03-07T23:43:06.441Z,29.58
2023-03-07T23:45:33.233Z,33.97
2023-03-07T23:47:59.790Z,34.90
2023-03-07T23:50:26.337Z,35.22
2023-03-07T23:52:58.241Z,33.97
2023-03-07T23:55:24.881Z,35.38
2023-03-07T23:57:51.598Z,34.22
